Time;durP1;ratioP1;P1;durP2;ratioP2;P2;SDS_P1;SDS_P2;PMS_P1;PMS_P2;Temp;Humidity;BMP_temperature;BMP_pressure;BME280_temperature;BME280_humidity;BME280_pressure;Samples;Min_cycle;Max_cycle;Signal;HPM_P1;HPM_P2
2023/04/10 00:01:04;;;;;;;13.60;9.30;;;;;;;9.74;54.04;101267.13;4131267;28;20043;-65
2023/04/10 00:03:07;;;;;;;14.32;9.85;;;;;;;9.71;54.01;101268.75;4130743;28;20520;-64
2023/04/10 00:05:11;;;;;;;13.02;9.20;;;;;;;9.67;54.17;101272.97;4129991;28;20038;-64
2023/04/10 00:07:14;;;;;;;10.65;7.57;;;;;;;9.66;53.55;101276.41;4130111;28;20389;-65
2023/04/10 00:09:17;;;;;;;13.05;9.48;;;;;;;9.66;53.05;101279.00;4132798;28;20046;-65
2023/04/10 00:11:20;;;;;;;10.75;7.80;;;;;;;9.67;52.65;101285.09;4134682;28;20112;-65
2023/04/10 00:13:23;;;;;;;10.43;7.95;;;;;;;9.65;53.06;101285.03;4134025;28;20101;-65
2023/04/10 00:15:27;;;;;;;12.43;8.23;;;;;;;9.65;53.21;101295.44;4134496;28;20042;-65
2023/04/10 00:17:31;;;;;;;10.50;7.75;;;;;;;9.68;52.14;101292.03;4134615;28;20145;-65
2023/04/10 00:19:34;;;;;;;10.88;7.97;;;;;;;9.65;52.86;101295.44;4134504;28;20042;-65
2023/04/10 00:21:37;;;;;;;10.75;7.57;;;;;;;9.67;52.52;101301.53;4133213;28;20097;-65
2023/04/10 00:23:40;;;;;;;11.57;8.68;;;;;;;9.67;52.34;101295.47;4132658;28;20140;-65
2023/04/10 00:25:43;;;;;;;10.68;7.40;;;;;;;9.69;51.94;101297.25;4134364;28;20495;-65
2023/04/10 00:27:45;;;;;;;11.43;8.05;;;;;;;9.67;52.32;101298.94;4134441;28;20061;-65
2023/04/10 00:29:48;;;;;;;11.00;7.65;;;;;;;9.64;52.79;101291.06;4117059;28;20049;-65
2023/04/10 00:31:51;;;;;;;11.27;7.65;;;;;;;9.63;52.46;101297.06;4133157;28;20034;-65
2023/04/10 00:33:56;;;;;;;11.02;8.35;;;;;;;9.63;52.36;101288.41;4132449;28;20101;-65
2023/04/10 00:35:58;;;;;;;12.85;8.50;;;;;;;9.57;52.93;101282.19;4116805;28;20505;-65
2023/04/10 00:38:01;;;;;;;10.55;7.90;;;;;;;9.58;52.44;101286.56;4132958;28;20065;-65
2023/04/10 00:40:06;;;;;;;11.63;7.60;;;;;;;9.55;53.06;101288.16;4133027;28;20050;-65
2023/04/10 00:42:08;;;;;;;11.48;8.10;;;;;;;9.50;52.99;101284.53;4116377;28;20484;-65
2023/04/10 00:44:11;;;;;;;13.52;8.52;;;;;;;9.48;52.97;101291.41;4116973;28;20174;-65
2023/04/10 00:46:14;;;;;;;10.85;8.23;;;;;;;9.46;53.28;101287.88;4116749;28;20042;-65
2023/04/10 00:48:17;;;;;;;10.25;7.75;;;;;;;9.42;53.08;101284.31;4132810;28;20516;-65
2023/04/10 00:50:22;;;;;;;12.15;8.68;;;;;;;9.39;53.30;101285.09;4132882;28;20046;-65
2023/04/10 00:52:26;;;;;;;10.52;8.27;;;;;;;9.35;53.69;101278.03;4133419;28;20057;-65
2023/04/10 00:54:31;;;;;;;9.82;7.47;;;;;;;9.33;53.39;101274.50;4132709;28;20508;-65
2023/04/10 00:56:34;;;;;;;11.65;8.05;;;;;;;9.31;53.84;101272.69;4132739;28;20504;-65
2023/04/10 00:58:38;;;;;;;9.73;7.80;;;;;;;9.25;53.81;101270.78;4116636;28;20043;-65
2023/04/10 01:00:41;;;;;;;10.23;7.93;;;;;;;9.26;54.10;101262.16;4133870;28;20061;-65
2023/04/10 01:02:44;;;;;;;11.60;8.05;;;;;;;9.23;54.02;101262.94;4132010;28;20077;-65
2023/04/10 01:04:47;;;;;;;9.57;7.10;;;;;;;9.20;54.39;101262.84;4132618;28;20408;-65
2023/04/10 01:06:59;;;;;;;10.13;7.50;;;;;;;9.20;54.13;101267.13;4133846;28;20519;-65
2023/04/10 01:09:11;;;;;;;9.55;7.57;;;;;;;9.15;54.34;101261.78;4133852;28;20136;-65
2023/04/10 01:11:27;;;;;;;11.27;7.82;;;;;;;9.11;54.59;101269.44;4132774;28;20492;-65
2023/04/10 01:13:36;;;;;;;10.93;7.95;;;;;;;9.09;54.71;101274.56;4131960;28;20085;-65
2023/04/10 01:15:46;;;;;;;11.50;8.23;;;;;;;9.07;54.72;101271.94;4132519;28;20077;-65
2023/04/10 01:17:56;;;;;;;9.68;7.25;;;;;;;9.04;54.72;101276.16;4148697;28;20042;-65
2023/04/10 01:20:09;;;;;;;10.65;8.20;;;;;;;9.03;54.71;101271.78;4133532;28;20069;-65
2023/04/10 01:22:15;;;;;;;10.52;7.47;;;;;;;9.00;54.44;101284.66;4131773;28;20039;-65
2023/04/10 01:24:33;;;;;;;9.32;6.85;;;;;;;9.03;54.03;101288.22;4116369;28;20530;-65
2023/04/10 01:26:56;;;;;;;9.20;6.95;;;;;;;9.00;53.82;101295.03;4132387;28;20133;-65
2023/04/10 01:29:02;;;;;;;9.80;7.20;;;;;;;8.94;54.14;101292.22;4148581;28;20096;-65
2023/04/10 01:31:08;;;;;;;10.02;7.53;;;;;;;8.99;54.01;101291.53;4132302;28;20061;-65
2023/04/10 01:33:14;;;;;;;10.27;7.43;;;;;;;9.03;54.02;101295.13;4131623;28;20046;-65
2023/04/10 01:35:18;;;;;;;10.75;8.00;;;;;;;9.02;53.96;101299.44;4115926;28;20050;-65
2023/04/10 01:37:24;;;;;;;11.65;8.07;;;;;;;9.05;53.99;101293.44;4132272;28;20050;-65
2023/04/10 01:39:29;;;;;;;11.20;8.70;;;;;;;9.05;54.13;101289.16;4132179;28;20059;-65
2023/04/10 01:41:35;;;;;;;14.05;8.23;;;;;;;9.02;54.47;101283.88;4132104;28;20042;-65
2023/04/10 01:43:41;;;;;;;12.55;9.23;;;;;;;9.00;54.54;101293.31;4131558;28;20129;-65
2023/04/10 01:45:48;;;;;;;12.65;9.55;;;;;;;8.99;54.45;101294.13;4133253;28;20121;-65
2023/04/10 01:47:51;;;;;;;9.98;7.57;;;;;;;8.97;54.33;101295.78;4132076;28;20074;-65
2023/04/10 01:49:55;;;;;;;10.98;8.15;;;;;;;8.95;54.50;101292.28;4148274;28;20046;-65
2023/04/10 01:52:00;;;;;;;11.80;9.45;;;;;;;8.95;54.52;101291.38;4132036;28;20042;-65
2023/04/10 01:54:05;;;;;;;12.63;9.00;;;;;;;8.93;54.52;101288.72;4131439;28;20042;-65
2023/04/10 01:56:11;;;;;;;11.18;8.55;;;;;;;8.93;54.86;101280.94;4133148;28;20484;-65
2023/04/10 01:58:21;;;;;;;11.98;9.45;;;;;;;8.94;55.06;101285.31;4131896;28;20038;-65
2023/04/10 02:00:24;;;;;;;10.70;8.40;;;;;;;8.91;55.36;101283.50;4115732;28;20101;-65
2023/04/10 02:02:31;;;;;;;10.25;8.25;;;;;;;8.92;55.50;101281.78;4131035;28;20046;-65
2023/04/10 02:04:34;;;;;;;11.93;8.80;;;;;;;8.84;55.79;101263.38;4131740;28;20060;-65
2023/04/10 02:06:44;;;;;;;12.27;8.90;;;;;;;8.83;55.53;101278.88;4132929;28;20596;-65
2023/04/10 02:08:53;;;;;;;11.63;9.02;;;;;;;8.81;56.10;101267.59;4131697;28;20558;-65
2023/04/10 02:11:02;;;;;;;11.60;9.05;;;;;;;8.80;55.87;101268.41;4132897;28;20053;-65
2023/04/10 02:13:07;;;;;;;13.82;9.68;;;;;;;8.79;55.80;101267.53;4131016;28;20142;-65
2023/04/10 02:15:11;;;;;;;12.95;9.52;;;;;;;8.78;55.81;101268.34;4115415;28;20053;-65
2023/04/10 02:17:15;;;;;;;;;;;;;;;8.62;56.30;101260.88;4131964;28;20524;-65
2023/04/10 02:19:21;;;;;;;11.75;9.10;;;;;;;8.63;56.02;101262.63;4131495;28;20213;-65
2023/04/10 02:21:25;;;;;;;12.68;9.10;;;;;;;8.63;56.06;101257.44;4132618;28;20412;-65
2023/04/10 02:23:28;;;;;;;13.27;10.02;;;;;;;8.64;55.83;101262.66;4130847;28;20039;-65
2023/04/10 02:25:31;;;;;;;12.73;9.63;;;;;;;8.66;55.90;101254.94;4147545;28;20038;-65
2023/04/10 02:27:36;;;;;;;11.77;9.20;;;;;;;8.64;56.24;101257.50;4132596;28;20042;-65
2023/04/10 02:29:38;;;;;;;12.57;10.10;;;;;;;8.57;56.29;101252.91;4132593;28;20046;-65
2023/04/10 02:31:42;;;;;;;11.65;8.65;;;;;;;8.58;56.47;101264.19;4130676;28;20145;-65
2023/04/10 02:33:46;;;;;;;11.60;9.50;;;;;;;8.56;56.60;101257.22;4146866;28;20523;-65
2023/04/10 02:35:50;;;;;;;11.57;9.10;;;;;;;8.52;56.71;101252.75;4131134;28;20077;-65
2023/04/10 02:37:53;;;;;;;13.30;9.85;;;;;;;8.50;57.48;101258.75;4115076;28;20141;-65
2023/04/10 02:39:56;;;;;;;10.52;8.10;;;;;;;8.48;57.65;101258.66;4131176;28;20049;-65
2023/04/10 02:42:01;;;;;;;13.13;9.68;;;;;;;8.40;57.72;101260.06;4131150;28;20034;-65
2023/04/10 02:44:05;;;;;;;11.15;8.35;;;;;;;8.33;57.84;101265.84;4131827;28;20050;-65
2023/04/10 02:46:08;;;;;;;11.02;8.50;;;;;;;8.34;57.38;101263.31;4131033;28;20096;-65
2023/04/10 02:48:14;;;;;;;12.70;9.60;;;;;;;8.37;57.06;101262.56;4147308;28;20132;-65
2023/04/10 02:50:17;;;;;;;12.70;9.35;;;;;;;8.39;56.88;101264.34;4131098;28;20405;-65
2023/04/10 02:52:22;;;;;;;11.80;8.82;;;;;;;8.37;56.94;101266.03;4130457;28;20069;-65
2023/04/10 02:54:25;;;;;;;11.65;8.90;;;;;;;8.38;57.24;101253.94;4130999;28;20069;-64
2023/04/10 02:56:28;;;;;;;13.55;9.80;;;;;;;8.40;56.95;101252.31;4147121;28;20093;-65
2023/04/10 02:58:31;;;;;;;11.15;8.95;;;;;;;8.42;56.71;101252.34;4130900;28;20077;-64
2023/04/10 03:00:36;;;;;;;13.13;9.55;;;;;;;8.42;57.42;101254.94;4130842;28;20035;-65
2023/04/10 03:02:52;;;;;;;11.13;8.25;;;;;;;8.38;57.67;101257.44;4114078;28;20153;-65
2023/04/10 03:04:55;;;;;;;11.68;9.23;;;;;;;8.36;57.49;101238.34;4131924;28;20105;-64
2023/04/10 03:06:59;;;;;;;11.43;8.70;;;;;;;8.34;57.55;101250.38;4130832;28;20082;-65
2023/04/10 03:09:03;;;;;;;11.82;9.35;;;;;;;8.31;57.89;101245.09;4130731;28;20045;-65
2023/04/10 03:11:08;;;;;;;11.23;8.32;;;;;;;8.25;57.96;101242.28;4146988;28;20038;-65
2023/04/10 03:13:11;;;;;;;15.40;11.00;;;;;;;8.23;57.88;101243.03;4131345;28;20118;-65
2023/04/10 03:15:15;;;;;;;11.23;9.02;;;;;;;8.21;57.99;101242.97;4146737;28;20104;-65
2023/04/10 03:17:17;;;;;;;12.57;9.75;;;;;;;8.20;58.10;101242.09;4130860;28;20125;-65
2023/04/10 03:19:21;;;;;;;12.57;9.20;;;;;;;8.21;57.98;101235.22;4130578;28;20043;-65
2023/04/10 03:21:24;;;;;;;11.90;9.45;;;;;;;8.22;57.97;101234.41;4146802;28;20076;-65
2023/04/10 03:23:26;;;;;;;11.88;8.85;;;;;;;8.20;57.97;101225.66;4129795;28;20042;-65
2023/04/10 03:25:31;;;;;;;12.48;9.50;;;;;;;8.19;57.83;101224.81;4131628;28;20046;-65
2023/04/10 03:27:33;;;;;;;;;;;;;;;8.06;58.24;101219.09;4130948;28;20610;-65
2023/04/10 03:29:37;;;;;;;13.48;9.40;;;;;;;8.01;58.02;101213.75;4130389;28;19932;-65
2023/04/10 03:31:40;;;;;;;12.15;9.23;;;;;;;8.01;57.91;101206.88;4114286;28;20046;-65
2023/04/10 03:33:44;;;;;;;13.45;10.25;;;;;;;8.02;57.30;101213.81;4129839;28;20043;-65
2023/04/10 03:35:47;;;;;;;13.82;9.73;;;;;;;8.03;57.42;101206.91;4130186;28;20049;-65
2023/04/10 03:37:49;;;;;;;14.05;10.15;;;;;;;7.98;57.54;101206.75;4130447;28;20042;-65
2023/04/10 03:39:52;;;;;;;13.13;10.18;;;;;;;7.95;57.65;101209.22;4114231;28;20525;-65
2023/04/10 03:41:57;;;;;;;13.55;10.65;;;;;;;7.92;57.66;101205.66;4130113;28;20085;-65
2023/04/10 03:44:02;;;;;;;13.38;10.20;;;;;;;7.92;57.86;101206.53;4128730;28;20321;-64
2023/04/10 03:46:05;;;;;;;13.00;9.55;;;;;;;7.91;57.83;101198.72;4146458;28;20053;-65
2023/04/10 03:48:16;;;;;;;13.57;10.15;;;;;;;7.93;58.33;101203.13;4130334;28;20052;-65
2023/04/10 03:50:21;;;;;;;14.65;10.60;;;;;;;7.93;57.99;101210.91;4130308;28;20049;-64
2023/04/10 03:52:30;;;;;;;11.52;8.38;;;;;;;7.96;57.97;101203.25;4129630;28;20038;-65
2023/04/10 03:54:33;;;;;;;11.32;8.85;;;;;;;7.99;58.11;101200.75;4130125;28;20100;-65
2023/04/10 03:56:36;;;;;;;11.45;8.38;;;;;;;8.01;58.11;101203.41;4130208;28;20471;-65
2023/04/10 03:58:40;;;;;;;11.75;8.60;;;;;;;8.01;57.65;101212.03;4146350;28;20058;-64
2023/04/10 04:00:43;;;;;;;11.20;8.13;;;;;;;8.02;57.75;101219.00;4146399;28;20049;-65
2023/04/10 04:02:57;;;;;;;12.18;9.05;;;;;;;8.01;57.37;101212.03;4129537;28;20038;-64
2023/04/10 04:05:20;;;;;;;11.27;8.35;;;;;;;7.99;57.76;101212.84;4110523;28;20097;-64
2023/04/10 04:07:43;;;;;;;12.23;8.88;;;;;;;8.00;58.13;101207.72;4129899;28;20046;-65
2023/04/10 04:10:06;;;;;;;11.93;9.50;;;;;;;7.99;58.12;101200.75;4130130;28;20053;-65
2023/04/10 04:12:22;;;;;;;12.35;9.68;;;;;;;7.94;58.05;101202.28;4129438;28;20518;-64
2023/04/10 04:14:44;;;;;;;11.90;8.95;;;;;;;7.94;58.10;101207.47;4129991;28;20503;-63
2023/04/10 04:17:22;;;;;;;12.65;8.88;;;;;;;7.88;57.95;101196.88;4145508;28;20451;-64
2023/04/10 04:19:50;;;;;;;12.18;9.18;;;;;;;7.86;58.36;101206.31;4134563;28;20501;-64
2023/04/10 04:22:16;;;;;;;10.85;8.68;;;;;;;7.80;59.03;101204.38;4130712;28;20045;-64
2023/04/10 04:24:38;;;;;;;11.68;8.45;;;;;;;7.78;58.48;101199.97;4129840;28;20046;-64
2023/04/10 04:26:53;;;;;;;13.20;9.68;;;;;;;7.76;58.94;101207.66;4130051;28;20042;-64
2023/04/10 04:29:14;;;;;;;12.85;8.93;;;;;;;7.73;58.93;101206.69;4131175;28;20093;-64
2023/04/10 04:31:38;;;;;;;12.18;8.70;;;;;;;7.73;59.35;101206.69;4129974;28;20077;-64
2023/04/10 04:33:51;;;;;;;13.10;9.30;;;;;;;7.72;59.57;101212.69;4129350;28;20069;-64
2023/04/10 04:36:13;;;;;;;11.52;8.80;;;;;;;7.65;59.85;101220.22;4130954;28;20062;-63
2023/04/10 04:38:38;;;;;;;11.70;9.00;;;;;;;7.64;59.02;101212.41;4130595;28;20058;-64
2023/04/10 04:41:01;;;;;;;13.93;9.20;;;;;;;7.65;59.47;101220.22;4129958;28;20532;-65
2023/04/10 04:43:16;;;;;;;13.02;9.57;;;;;;;7.63;59.58;101216.66;4145355;28;20038;-64
2023/04/10 04:45:31;;;;;;;12.75;9.50;;;;;;;7.63;59.67;101221.84;4129841;28;20046;-64
2023/04/10 04:47:44;;;;;;;12.07;9.18;;;;;;;7.63;59.58;101221.84;4129906;28;20050;-64
2023/04/10 04:50:03;;;;;;;11.05;9.00;;;;;;;7.64;59.58;101226.19;4130956;28;20053;-64
2023/04/10 04:52:29;;;;;;;12.00;8.95;;;;;;;7.70;58.95;101228.16;4129489;28;20058;-64
2023/04/10 04:54:39;;;;;;;12.45;9.85;;;;;;;7.73;59.06;101238.63;4131175;28;20077;-64
2023/04/10 04:57:02;;;;;;;13.35;10.35;;;;;;;7.76;59.00;101230.09;4132719;28;20161;-64
2023/04/10 04:59:27;;;;;;;12.82;9.02;;;;;;;7.75;58.61;101238.66;4149018;28;20114;-64
2023/04/10 05:01:41;;;;;;;12.82;9.13;;;;;;;7.79;58.48;101240.56;4132719;28;20493;-64
2023/04/10 05:04:10;;;;;;;13.45;8.65;;;;;;;7.76;58.66;101237.84;4133743;28;20043;-64
2023/04/10 05:06:33;;;;;;;10.25;7.75;;;;;;;7.78;58.79;101241.38;4132703;28;20038;-65
2023/04/10 05:09:05;;;;;;;12.68;9.43;;;;;;;7.82;58.91;101238.94;4132091;28;20459;-65
2023/04/10 05:11:26;;;;;;;12.68;9.05;;;;;;;7.86;59.00;101234.78;4133777;28;20054;-65
2023/04/10 05:13:48;;;;;;;12.10;8.77;;;;;;;7.88;58.69;101227.94;4131900;28;20042;-65
2023/04/10 05:16:10;;;;;;;11.63;8.80;;;;;;;7.89;59.32;101223.69;4133552;28;20141;-65
2023/04/10 05:18:31;;;;;;;15.38;9.55;;;;;;;7.92;59.83;101226.38;4132186;28;20059;-65
2023/04/10 05:21:07;;;;;;;13.52;9.43;;;;;;;7.92;59.63;101228.97;4121539;28;20058;-65
2023/04/10 05:23:33;;;;;;;12.50;10.18;;;;;;;7.88;59.50;101224.50;4131129;28;20436;-65
2023/04/10 05:25:52;;;;;;;11.68;8.93;;;;;;;7.90;59.44;101225.41;4132182;28;20428;-65
2023/04/10 05:28:06;;;;;;;13.43;10.27;;;;;;;7.89;59.36;101224.56;4148467;28;20076;-65
2023/04/10 05:30:28;;;;;;;17.27;10.43;;;;;;;7.89;59.32;101224.56;4148386;28;20046;-65
2023/04/10 05:32:40;;;;;;;16.45;11.38;;;;;;;7.89;59.31;101224.56;4132731;28;20073;-65
2023/04/10 05:35:00;;;;;;;14.27;10.07;;;;;;;7.89;59.30;101228.84;4132835;28;20043;-96
2023/04/10 05:37:11;;;;;;;13.77;10.07;;;;;;;7.90;59.09;101221.16;4146337;28;20443;-69
2023/04/10 05:39:30;;;;;;;13.05;8.95;;;;;;;7.90;59.71;101231.50;4132101;28;20046;-68
2023/04/10 05:41:46;;;;;;;13.05;9.35;;;;;;;7.89;59.64;101234.03;4132055;28;20046;-69
2023/04/10 05:44:00;;;;;;;13.70;10.18;;;;;;;7.94;59.24;101238.53;4131524;28;20038;-69
2023/04/10 05:46:29;;;;;;;14.68;9.75;;;;;;;7.94;59.84;101235.06;4149375;28;20583;-69
2023/04/10 05:48:58;;;;;;;13.10;10.35;;;;;;;8.00;59.84;101238.78;4132023;28;20393;-68
2023/04/10 05:51:17;;;;;;;12.90;9.80;;;;;;;8.08;59.85;101236.47;4132034;28;20066;-68
2023/04/10 05:53:35;;;;;;;14.35;10.07;;;;;;;8.13;59.97;101244.41;4147572;28;20041;-69
2023/04/10 05:55:58;;;;;;;14.10;10.40;;;;;;;8.18;59.63;101238.56;4149275;28;20060;-68
2023/04/10 05:58:33;;;;;;;14.07;9.32;;;;;;;8.21;59.84;101232.63;4135896;28;20065;-68
2023/04/10 06:00:47;;;;;;;14.68;10.80;;;;;;;8.22;59.72;101234.41;4149221;28;20049;-68
2023/04/10 06:03:13;;;;;;;13.93;9.98;;;;;;;8.29;59.64;101240.66;4140459;28;20050;-68
2023/04/10 06:05:25;;;;;;;11.82;9.20;;;;;;;8.34;59.40;101234.81;4147210;28;20045;-69
2023/04/10 06:07:34;;;;;;;14.75;11.07;;;;;;;8.42;59.27;101231.63;4131608;28;20093;-68
2023/04/10 06:09:38;;;;;;;13.60;9.50;;;;;;;8.46;59.05;101236.13;4147940;28;20081;-68
2023/04/10 06:11:42;;;;;;;13.27;9.98;;;;;;;8.49;59.39;101231.06;4115481;28;20074;-68
2023/04/10 06:13:46;;;;;;;13.55;10.38;;;;;;;8.53;58.79;101230.34;4131028;28;20043;-68
2023/04/10 06:15:49;;;;;;;14.05;10.98;;;;;;;8.57;59.31;101221.81;4131552;28;20038;-69
2023/04/10 06:17:53;;;;;;;15.52;11.60;;;;;;;8.62;59.46;101224.59;4131554;28;20069;-68
2023/04/10 06:19:58;;;;;;;13.75;10.20;;;;;;;8.69;58.60;101222.25;4131634;28;20042;-68
2023/04/10 06:22:01;;;;;;;14.07;10.70;;;;;;;8.72;58.67;101217.16;4131474;28;20051;-68
2023/04/10 06:24:04;;;;;;;13.48;10.63;;;;;;;8.76;58.69;101225.03;4130800;28;20066;-69
2023/04/10 06:26:08;;;;;;;14.27;9.95;;;;;;;8.79;58.52;101219.97;4147455;28;20132;-69
2023/04/10 06:28:11;;;;;;;14.30;11.05;;;;;;;8.83;58.39;101216.66;4131492;28;20116;-69
2023/04/10 06:30:17;;;;;;;13.85;10.50;;;;;;;8.84;58.11;101221.88;4115209;28;20074;-69
2023/04/10 06:32:20;;;;;;;13.23;10.10;;;;;;;8.93;57.60;101218.72;4130681;28;20045;-69
2023/04/10 06:34:23;;;;;;;11.27;8.30;;;;;;;8.99;57.57;101216.31;4131312;28;20034;-69
2023/04/10 06:36:35;;;;;;;13.80;9.45;;;;;;;9.05;56.72;101211.34;4131069;28;20519;-69
2023/04/10 06:38:41;;;;;;;12.25;9.07;;;;;;;9.12;57.33;101221.91;4131432;28;20639;-69
2023/04/10 06:40:44;;;;;;;12.15;8.70;;;;;;;9.17;57.30;101212.56;4131085;28;20133;-69
2023/04/10 06:42:48;;;;;;;14.75;9.73;;;;;;;9.22;56.63;101218.78;4147930;28;20061;-69
2023/04/10 06:45:00;;;;;;;13.77;9.82;;;;;;;9.25;56.05;101218.88;4130987;28;20507;-69
2023/04/10 06:47:05;;;;;;;13.57;10.30;;;;;;;9.35;56.27;101210.56;4147429;28;20037;-70
2023/04/10 06:49:08;;;;;;;;;;;;;;;9.34;56.39;101213.09;4148907;28;20049;-70
2023/04/10 06:51:11;;;;;;;14.32;9.55;;;;;;;9.40;56.05;101214.19;4148487;28;19927;-69
2023/04/10 06:53:14;;;;;;;12.38;9.05;;;;;;;9.41;55.69;101218.53;4147743;28;20037;-70
2023/04/10 06:55:17;;;;;;;14.10;8.73;;;;;;;9.47;55.44;101209.19;4148202;28;20404;-70
2023/04/10 06:57:20;;;;;;;11.27;8.85;;;;;;;9.60;54.84;101209.59;4148267;28;20042;-70
2023/04/10 06:59:24;;;;;;;12.70;10.20;;;;;;;9.71;55.52;101204.72;4130811;28;20573;-70
2023/04/10 07:01:27;;;;;;;11.27;8.32;;;;;;;9.83;55.35;101211.09;4148310;28;20048;-70
2023/04/10 07:03:31;;;;;;;11.30;7.82;;;;;;;9.89;55.58;101198.31;4130238;28;20050;-70
2023/04/10 07:05:34;;;;;;;14.68;9.07;;;;;;;9.98;55.65;101203.75;4148188;28;20254;-69
2023/04/10 07:07:37;;;;;;;12.02;8.05;;;;;;;10.08;55.41;101199.72;4130871;28;20060;-69
2023/04/10 07:09:40;;;;;;;10.80;8.40;;;;;;;10.18;54.39;101200.84;4146987;28;20092;-70
2023/04/10 07:11:43;;;;;;;13.32;8.45;;;;;;;10.25;54.78;101203.66;4148094;28;20042;-69
2023/04/10 07:13:45;;;;;;;12.40;9.00;;;;;;;10.35;54.72;101202.22;4147502;28;20122;-70
2023/04/10 07:15:50;;;;;;;11.00;7.82;;;;;;;10.46;53.50;101197.31;4130592;28;20513;-70
2023/04/10 07:17:52;;;;;;;10.00;7.63;;;;;;;10.54;53.34;101203.63;4130560;28;20069;-70
2023/04/10 07:19:55;;;;;;;9.48;7.10;;;;;;;10.91;50.72;101194.13;4148055;28;20044;-69
2023/04/10 07:21:59;;;;;;;10.07;7.57;;;;;;;10.85;50.89;101196.59;4147974;28;20038;-69
2023/04/10 07:24:02;;;;;;;10.75;6.53;;;;;;;10.84;51.04;101194.81;4147405;28;20037;-69
2023/04/10 07:26:05;;;;;;;10.65;8.20;;;;;;;10.98;50.64;101187.34;4147748;28;20069;-70
2023/04/10 07:28:08;;;;;;;9.05;6.47;;;;;;;11.00;50.97;101186.53;4147835;28;20411;-69
2023/04/10 07:30:11;;;;;;;9.20;6.88;;;;;;;11.08;52.16;101188.44;4130416;28;20038;-70
2023/04/10 07:32:17;;;;;;;10.63;7.90;;;;;;;11.18;50.37;101190.44;4147250;28;20038;-70
2023/04/10 07:34:20;;;;;;;9.15;6.78;;;;;;;11.21;50.10;101185.28;4148047;28;20042;-70
2023/04/10 07:36:22;;;;;;;10.75;7.10;;;;;;;11.27;51.05;101181.94;4130366;28;20041;-70
2023/04/10 07:38:26;;;;;;;9.68;7.70;;;;;;;11.29;51.14;101177.69;4114234;28;20046;-70
2023/04/10 07:40:28;;;;;;;10.82;7.40;;;;;;;11.27;50.39;101184.56;4130282;28;20046;-70
2023/04/10 07:42:31;;;;;;;9.50;7.28;;;;;;;11.58;49.09;101178.31;4147148;28;20048;-70
2023/04/10 07:44:34;;;;;;;10.00;7.45;;;;;;;11.59;49.04;101169.66;4147708;28;20041;-70
2023/04/10 07:46:38;;;;;;;10.27;6.85;;;;;;;11.61;48.95;101174.88;4147673;28;20092;-70
2023/04/10 07:48:43;;;;;;;9.05;6.60;;;;;;;11.58;49.09;101174.81;4147767;28;20065;-70
2023/04/10 07:50:46;;;;;;;10.18;7.57;;;;;;;11.66;48.65;101170.66;4147908;28;20069;-70
2023/04/10 07:52:48;;;;;;;10.68;7.55;;;;;;;11.64;48.44;101174.97;4147021;28;20128;-70
2023/04/10 07:54:51;;;;;;;9.30;6.63;;;;;;;11.69;48.00;101184.63;4146367;28;20384;-70
2023/04/10 07:56:54;;;;;;;10.25;6.88;;;;;;;11.76;48.32;101175.22;4130218;28;20042;-70
2023/04/10 07:58:59;;;;;;;10.57;7.47;;;;;;;11.82;48.25;101177.94;4147569;28;20487;-70
2023/04/10 08:01:02;;;;;;;9.90;6.75;;;;;;;11.95;48.05;101181.72;4130057;28;20077;-70
2023/04/10 08:03:05;;;;;;;8.35;5.97;;;;;;;12.07;47.77;101178.47;4129440;28;20483;-71
2023/04/10 08:05:10;;;;;;;8.75;6.60;;;;;;;12.13;47.07;101162.94;4147431;28;20041;-70
2023/04/10 08:07:13;;;;;;;9.02;6.20;;;;;;;12.22;46.92;101168.34;4147601;28;20038;-71
2023/04/10 08:09:15;;;;;;;8.25;6.40;;;;;;;12.26;46.53;101164.06;4129954;28;20133;-70
2023/04/10 08:11:25;;;;;;;10.25;6.93;;;;;;;12.46;46.38;101159.22;4130121;28;20295;-70
2023/04/10 08:13:28;;;;;;;8.70;6.35;;;;;;;12.44;46.00;101155.72;4129534;28;20504;-70
2023/04/10 08:15:31;;;;;;;9.02;6.68;;;;;;;12.48;46.48;101157.50;4147725;28;20041;-70
2023/04/10 08:17:33;;;;;;;8.10;5.97;;;;;;;12.50;46.67;101154.91;4147513;28;20054;-70
2023/04/10 08:19:36;;;;;;;7.50;5.53;;;;;;;12.63;46.99;101156.91;4113945;28;20479;-70
2023/04/10 08:21:40;;;;;;;9.77;6.38;;;;;;;12.77;46.39;101154.53;4147471;28;20112;-70
2023/04/10 08:23:45;;;;;;;8.18;5.93;;;;;;;12.78;46.89;101158.03;4129317;28;20105;-70
2023/04/10 08:25:50;;;;;;;9.23;6.75;;;;;;;12.87;45.98;101156.44;4146094;28;20046;-70
2023/04/10 08:27:53;;;;;;;7.10;5.15;;;;;;;12.85;45.83;101152.94;4147353;28;20092;-70
2023/04/10 08:29:56;;;;;;;8.38;6.22;;;;;;;12.95;45.97;101153.94;4149389;28;20056;-70
2023/04/10 08:31:59;;;;;;;8.73;6.93;;;;;;;13.11;44.83;101142.00;4133143;28;20572;-70
2023/04/10 08:34:03;;;;;;;9.00;6.90;;;;;;;13.20;43.87;101139.53;4150132;28;20042;-70
2023/04/10 08:36:07;;;;;;;7.37;5.57;;;;;;;13.26;44.34;101142.22;4150434;28;20069;-70
2023/04/10 08:38:11;;;;;;;8.75;6.47;;;;;;;13.30;43.37;101147.47;4132907;28;20042;-70
2023/04/10 08:40:16;;;;;;;9.18;6.82;;;;;;;13.30;44.42;101145.75;4150536;28;20407;-70
2023/04/10 08:42:19;;;;;;;9.25;6.88;;;;;;;13.36;44.45;101131.94;4116227;28;20042;-70
2023/04/10 08:44:22;;;;;;;9.00;6.53;;;;;;;13.40;44.91;101137.25;4150055;28;20038;-71
2023/04/10 08:46:25;;;;;;;7.65;6.03;;;;;;;13.49;45.11;101130.34;4150236;28;20044;-71
2023/04/10 08:48:35;;;;;;;10.13;7.10;;;;;;;13.66;44.42;101133.19;4132944;28;20584;-71
2023/04/10 08:50:41;;;;;;;7.60;5.95;;;;;;;13.64;43.88;101137.50;4132906;28;20042;-71
2023/04/10 08:52:46;;;;;;;9.45;6.53;;;;;;;13.67;43.38;101140.16;4149914;28;20045;-71
2023/04/10 08:54:54;;;;;;;9.50;6.03;;;;;;;13.75;43.54;101133.31;4150466;28;20096;-71
2023/04/10 08:56:59;;;;;;;10.52;6.03;;;;;;;13.81;43.17;101130.75;4116687;28;20046;-71
2023/04/10 08:59:02;;;;;;;10.25;6.15;;;;;;;13.94;43.75;101124.81;4150506;28;20042;-71
2023/04/10 09:01:06;;;;;;;9.25;6.30;;;;;;;14.05;42.86;101121.47;4150166;28;20045;-71
2023/04/10 09:03:12;;;;;;;8.38;6.38;;;;;;;14.19;41.60;101119.81;4149584;28;20541;-71
2023/04/10 09:05:16;;;;;;;7.60;5.68;;;;;;;14.18;42.39;101118.09;4150091;28;20046;-71
2023/04/10 09:07:19;;;;;;;8.50;6.00;;;;;;;14.27;41.29;101105.09;4149949;28;20092;-71
2023/04/10 09:09:21;;;;;;;8.25;5.85;;;;;;;14.36;41.24;101113.91;4149981;28;20056;-72
2023/04/10 09:12:00;;;;;;;7.88;6.03;;;;;;;14.41;41.64;101105.25;4149977;28;20074;-71
2023/04/10 09:14:03;;;;;;;7.90;5.03;;;;;;;14.45;40.98;101096.53;4131964;28;20043;-71
2023/04/10 09:16:07;;;;;;;7.05;5.15;;;;;;;14.52;40.78;101094.00;4149910;28;20069;-72
2023/04/10 09:18:10;;;;;;;6.68;4.85;;;;;;;14.62;40.93;101083.63;4149992;28;20037;-71
2023/04/10 09:20:21;;;;;;;6.88;5.00;;;;;;;14.73;41.21;101085.44;4132432;28;20049;-72
2023/04/10 09:22:30;;;;;;;7.07;4.75;;;;;;;14.96;41.38;101083.00;4149137;28;20129;-72
2023/04/10 09:24:37;;;;;;;8.48;5.65;;;;;;;15.00;39.92;101069.06;4132631;28;20282;-71
2023/04/10 09:26:42;;;;;;;7.45;5.20;;;;;;;15.06;39.00;101073.44;4149640;28;20037;-72
2023/04/10 09:28:56;;;;;;;6.40;4.22;;;;;;;15.09;39.51;101076.09;4149691;28;20125;-72
2023/04/10 09:30:59;;;;;;;6.40;4.93;;;;;;;15.19;38.90;101070.03;4149730;28;20034;-72
2023/04/10 09:33:02;;;;;;;6.32;4.82;;;;;;;15.26;38.81;101073.53;4131551;28;20053;-72
2023/04/10 09:35:07;;;;;;;6.45;4.85;;;;;;;15.16;39.05;101067.41;4149502;28;20484;-73
2023/04/10 09:37:11;;;;;;;7.93;5.18;;;;;;;15.21;38.99;101063.03;4149583;28;20061;-73
2023/04/10 09:39:14;;;;;;;7.22;5.75;;;;;;;15.41;38.64;101060.50;4116006;28;20110;-72
2023/04/10 09:41:17;;;;;;;6.65;4.85;;;;;;;15.30;37.99;101057.88;4148162;28;20042;-72
2023/04/10 09:43:25;;;;;;;7.65;5.00;;;;;;;15.46;39.14;101057.91;4148873;28;20038;-71
2023/04/10 09:45:46;;;;;;;6.68;4.95;;;;;;;15.64;37.97;101055.34;4149343;28;20411;-71
2023/04/10 09:48:03;;;;;;;7.78;5.00;;;;;;;15.61;39.08;101049.22;4149474;28;20052;-71
2023/04/10 09:50:07;;;;;;;7.38;4.72;;;;;;;15.64;39.08;101041.38;4131978;28;20046;-71
2023/04/10 09:52:17;;;;;;;5.43;4.30;;;;;;;15.68;39.93;101038.78;4149172;28;20041;-71
2023/04/10 09:54:35;;;;;;;6.78;4.63;;;;;;;15.78;39.08;101026.56;4149737;28;20096;-70